createdAt,value
2017-05-22T00:00:56.558Z,12.52
2017-05-22T00:02:11.917Z,12.41
2017-05-22T00:03:26.159Z,12.39
2017-05-22T00:04:39.149Z,12.38
2017-05-22T00:05:54.491Z,12.41
2017-05-22T00:07:07.342Z,12.42
2017-05-22T00:08:21.518Z,12.35
2017-05-22T00:09:35.769Z,12.38
2017-05-22T00:10:49.848Z,12.37
2017-05-22T00:12:05.185Z,12.42
2017-05-22T00:13:20.534Z,12.42
2017-05-22T00:14:36.076Z,12.41
2017-05-22T00:15:51.409Z,12.38
2017-05-22T00:17:05.342Z,12.37
2017-05-22T00:18:20.676Z,12.31
2017-05-22T00:19:36.215Z,12.31
2017-05-22T00:20:50.293Z,12.26
2017-05-22T00:22:04.345Z,12.32
2017-05-22T00:23:19.712Z,12.24
2017-05-22T00:24:35.348Z,12.26
2017-05-22T00:25:49.039Z,12.24
2017-05-22T00:27:04.401Z,12.26
2017-05-22T00:28:20.030Z,12.24
2017-05-22T00:29:33.410Z,12.23
2017-05-22T00:30:48.735Z,12.26
2017-05-22T00:32:04.569Z,12.23
2017-05-22T00:33:19.910Z,12.19
2017-05-22T00:34:34.972Z,12.07
2017-05-22T00:35:49.003Z,12.17
2017-05-22T00:37:02.684Z,12.17
2017-05-22T00:38:16.743Z,12.09
2017-05-22T00:39:32.321Z,12.09
2017-05-22T00:40:47.681Z,12.09
2017-05-22T00:42:03.007Z,12.07
2017-05-22T00:43:17.055Z,12.11
2017-05-22T00:44:29.725Z,12.13
2017-05-22T00:45:45.012Z,12.04
2017-05-22T00:47:00.656Z,12.07
2017-05-22T00:48:15.989Z,12.04
2017-05-22T00:49:31.321Z,12.07
2017-05-22T00:50:47.017Z,11.98
2017-05-22T00:52:02.346Z,11.97
2017-05-22T00:53:16.387Z,11.89
2017-05-22T00:54:30.658Z,11.9
2017-05-22T00:55:46.239Z,11.9
2017-05-22T00:57:01.585Z,11.95
2017-05-22T00:58:16.937Z,11.95
2017-05-22T00:59:32.496Z,11.9
2017-05-22T01:00:48.024Z,11.89
2017-05-22T01:02:03.377Z,11.94
2017-05-22T01:03:18.749Z,11.9
2017-05-22T01:04:32.792Z,11.87
2017-05-22T01:05:47.050Z,11.84
2017-05-22T01:06:58.535Z,11.87
2017-05-22T01:08:13.866Z,11.79
2017-05-22T01:09:29.415Z,11.8
2017-05-22T01:10:43.730Z,11.83
2017-05-22T01:11:57.789Z,11.91
2017-05-22T01:13:10.784Z,11.9
2017-05-22T01:14:24.832Z,11.82
2017-05-22T01:15:40.469Z,11.83
2017-05-22T01:16:54.521Z,11.86
2017-05-22T01:18:09.887Z,11.8
2017-05-22T01:19:25.282Z,11.8
2017-05-22T01:20:39.360Z,11.77
2017-05-22T01:21:53.662Z,11.8
2017-05-22T01:23:07.707Z,11.84
2017-05-22T01:24:23.110Z,11.72
2017-05-22T01:25:38.451Z,11.76
2017-05-22T01:26:53.976Z,11.76
2017-05-22T01:28:09.317Z,11.74
2017-05-22T01:29:24.650Z,11.76
2017-05-22T01:30:40.086Z,11.76
2017-05-22T01:31:55.620Z,11.65
2017-05-22T01:33:10.946Z,11.72
2017-05-22T01:34:25.238Z,11.59
2017-05-22T01:35:40.568Z,11.66
2017-05-22T01:36:56.204Z,11.61
2017-05-22T01:38:11.634Z,11.66
2017-05-22T01:39:25.585Z,11.64
2017-05-22T01:40:39.482Z,11.48
2017-05-22T01:41:53.740Z,11.59
2017-05-22T01:43:09.122Z,11.49
2017-05-22T01:44:23.176Z,11.52
2017-05-22T01:45:38.520Z,11.57
2017-05-22T01:46:51.824Z,11.5
2017-05-22T01:48:07.155Z,11.52
2017-05-22T01:49:21.203Z,11.45
2017-05-22T01:50:35.252Z,11.42
2017-05-22T01:51:50.783Z,11.5
2017-05-22T01:53:06.211Z,11.49
2017-05-22T01:54:18.991Z,11.49
2017-05-22T01:55:34.390Z,11.45
2017-05-22T01:56:48.709Z,11.45
2017-05-22T01:58:04.053Z,11.58
2017-05-22T01:59:19.434Z,11.49
2017-05-22T02:00:34.773Z,11.48
2017-05-22T02:01:49.060Z,11.49
2017-05-22T02:03:03.109Z,11.5
2017-05-22T02:04:18.498Z,11.49
2017-05-22T02:05:33.850Z,11.5
2017-05-22T02:06:49.415Z,11.46
2017-05-22T02:08:02.496Z,11.5
2017-05-22T02:09:16.543Z,11.52
2017-05-22T02:10:29.328Z,11.52
2017-05-22T02:11:44.662Z,11.48
2017-05-22T02:13:00.475Z,11.52
2017-05-22T02:14:14.535Z,11.46
2017-05-22T02:15:29.845Z,11.48
2017-05-22T02:16:45.212Z,11.46
2017-05-22T02:18:00.773Z,11.48
2017-05-22T02:19:14.813Z,11.46
2017-05-22T02:20:27.799Z,11.48
2017-05-22T02:21:43.178Z,11.5
2017-05-22T02:22:58.774Z,11.52
2017-05-22T02:24:11.157Z,11.58
2017-05-22T02:25:25.237Z,11.5
2017-05-22T02:26:40.565Z,11.45
2017-05-22T02:27:54.729Z,11.57
2017-05-22T02:29:08.718Z,11.61
2017-05-22T02:30:22.727Z,11.58
2017-05-22T02:31:33.845Z,11.62
2017-05-22T02:32:47.893Z,11.52
2017-05-22T02:34:03.428Z,11.59
2017-05-22T02:35:17.484Z,11.58
2017-05-22T02:36:32.845Z,11.61
2017-05-22T02:37:48.249Z,11.61
2017-05-22T02:39:03.768Z,11.61
2017-05-22T02:40:17.860Z,11.61
2017-05-22T02:41:29.197Z,11.62
2017-05-22T02:42:44.588Z,11.61
2017-05-22T02:44:00.109Z,11.65
2017-05-22T02:45:12.862Z,11.65
2017-05-22T02:46:26.907Z,11.58
2017-05-22T02:47:41.011Z,11.72
2017-05-22T02:48:55.150Z,11.62
2017-05-22T02:50:10.723Z,11.69
2017-05-22T02:51:26.088Z,11.71
2017-05-22T02:52:38.770Z,11.71
2017-05-22T02:53:51.630Z,11.74
2017-05-22T02:55:06.145Z,11.71
2017-05-22T02:56:21.497Z,11.74
2017-05-22T02:57:36.844Z,11.77
2017-05-22T02:58:52.256Z,11.76
2017-05-22T03:00:06.633Z,11.87
2017-05-22T03:01:21.962Z,11.9
2017-05-22T03:02:34.582Z,11.84
2017-05-22T03:03:47.373Z,11.9
2017-05-22T03:05:00.387Z,11.77
2017-05-22T03:06:14.424Z,11.82
2017-05-22T03:07:29.385Z,11.77
2017-05-22T03:08:43.426Z,11.76
2017-05-22T03:09:59.064Z,11.76
2017-05-22T03:11:14.688Z,11.79
2017-05-22T03:12:28.720Z,11.87
2017-05-22T03:13:42.764Z,11.89
2017-05-22T03:14:58.080Z,11.83
2017-05-22T03:16:12.631Z,11.86
2017-05-22T03:17:26.738Z,11.8
2017-05-22T03:18:42.169Z,11.84
2017-05-22T03:19:57.728Z,11.89
2017-05-22T03:21:13.263Z,11.99
2017-05-22T03:22:28.621Z,12.01
2017-05-22T03:23:44.013Z,12.11
2017-05-22T03:24:59.573Z,12.11
2017-05-22T03:26:15.137Z,12.08
2017-05-22T03:27:30.492Z,12.08
2017-05-22T03:28:44.549Z,12.16
2017-05-22T03:29:59.969Z,12.13
2017-05-22T03:31:16.015Z,12.2
2017-05-22T03:32:31.354Z,12.2
2017-05-22T03:33:45.266Z,12.11
2017-05-22T03:35:00.640Z,12.26
2017-05-22T03:36:16.254Z,12.26
2017-05-22T03:37:31.664Z,12.26
2017-05-22T03:38:47.066Z,12.2
2017-05-22T03:40:02.407Z,12.29
2017-05-22T03:41:16.706Z,12.27
2017-05-22T03:42:31.708Z,12.27
2017-05-22T03:43:47.034Z,12.29
2017-05-22T03:45:01.083Z,12.29
2017-05-22T03:46:16.623Z,12.24
2017-05-22T03:47:31.943Z,12.24
2017-05-22T03:48:46.002Z,12.24
2017-05-22T03:50:00.052Z,12.22
2017-05-22T03:51:15.663Z,12.19
2017-05-22T03:52:28.439Z,12.09
2017-05-22T03:53:42.610Z,12.11
2017-05-22T03:54:58.215Z,12.16
2017-05-22T03:56:13.621Z,12.08
2017-05-22T03:57:29.152Z,12.04
2017-05-22T03:58:43.184Z,12.07
2017-05-22T03:59:58.170Z,12.01
2017-05-22T04:01:13.524Z,11.99
2017-05-22T04:02:27.619Z,12.07
2017-05-22T04:03:41.680Z,12.02
2017-05-22T04:04:57.077Z,12.07
2017-05-22T04:06:10.982Z,12.05
2017-05-22T04:07:25.086Z,12.04
2017-05-22T04:08:38.997Z,12.08
2017-05-22T04:09:53.129Z,12.09
2017-05-22T04:11:08.455Z,12.07
2017-05-22T04:12:22.759Z,12.19
2017-05-22T04:13:36.876Z,12.22
2017-05-22T04:14:52.237Z,12.16
2017-05-22T04:16:04.886Z,12.24
2017-05-22T04:17:18.823Z,12.31
2017-05-22T04:18:34.376Z,12.31
2017-05-22T04:19:49.809Z,12.35
2017-05-22T04:21:02.471Z,12.35
2017-05-22T04:22:17.823Z,12.42
2017-05-22T04:23:32.345Z,12.37
2017-05-22T04:24:46.271Z,12.41
2017-05-22T04:26:01.622Z,12.44
2017-05-22T04:27:16.951Z,12.5
2017-05-22T04:28:32.583Z,12.6
2017-05-22T04:29:48.070Z,12.53
2017-05-22T04:31:02.162Z,12.55
2017-05-22T04:32:17.586Z,12.7
2017-05-22T04:33:31.890Z,12.78
2017-05-22T04:34:43.430Z,12.81
2017-05-22T04:35:58.799Z,12.88
2017-05-22T04:37:14.204Z,12.92
2017-05-22T04:38:28.126Z,13.04
2017-05-22T04:39:43.725Z,13.04
2017-05-22T04:40:57.851Z,13.01
2017-05-22T04:42:13.180Z,13.04
2017-05-22T04:43:27.222Z,13.01
2017-05-22T04:44:42.761Z,13.12
2017-05-22T04:45:58.125Z,13.16
2017-05-22T04:47:12.246Z,13.15
2017-05-22T04:48:26.298Z,13.26
2017-05-22T04:49:41.915Z,13.26
2017-05-22T04:50:54.989Z,13.36
2017-05-22T04:52:09.026Z,13.34
2017-05-22T04:53:23.088Z,13.34
2017-05-22T04:54:38.706Z,13.4
2017-05-22T04:55:54.093Z,13.36
2017-05-22T04:57:09.468Z,13.37
2017-05-22T04:58:25.378Z,13.31
2017-05-22T04:59:39.915Z,13.37
2017-05-22T05:00:55.626Z,13.4
2017-05-22T05:02:09.752Z,13.31
2017-05-22T05:03:23.865Z,13.31
2017-05-22T05:04:38.160Z,13.33
2017-05-22T05:05:52.202Z,13.37
2017-05-22T05:07:06.254Z,13.37
2017-05-22T05:08:20.191Z,13.46
2017-05-22T05:09:34.597Z,13.49
2017-05-22T05:10:50.173Z,13.45
2017-05-22T05:12:04.215Z,13.48
2017-05-22T05:13:18.270Z,13.54
2017-05-22T05:14:32.225Z,13.55
2017-05-22T05:15:45.137Z,13.63
2017-05-22T05:16:59.184Z,13.69
2017-05-22T05:18:13.245Z,13.61
2017-05-22T05:19:28.597Z,13.7
2017-05-22T05:20:44.365Z,13.71
2017-05-22T05:22:29.866Z,13.76
2017-05-22T05:23:44.097Z,13.76
2017-05-22T05:24:59.457Z,13.76
2017-05-22T05:26:15.058Z,13.77
2017-05-22T05:27:27.709Z,13.85
2017-05-22T05:28:42.063Z,13.76
2017-05-22T05:29:57.658Z,13.77
2017-05-22T05:31:11.957Z,13.76
2017-05-22T05:32:27.494Z,13.74
2017-05-22T05:33:42.921Z,13.67
2017-05-22T05:34:56.986Z,13.74
2017-05-22T05:36:12.527Z,13.7
2017-05-22T05:37:27.914Z,13.76
2017-05-22T05:38:43.249Z,13.71
2017-05-22T05:39:58.826Z,13.69
2017-05-22T05:41:14.459Z,13.74
2017-05-22T05:42:29.826Z,13.61
2017-05-22T05:43:42.464Z,13.63
2017-05-22T05:44:57.873Z,13.55
2017-05-22T05:46:12.225Z,13.67
2017-05-22T05:47:25.031Z,13.59
2017-05-22T05:48:39.086Z,13.61
2017-05-22T05:49:54.463Z,13.58
2017-05-22T05:51:08.558Z,13.63
2017-05-22T05:52:24.151Z,13.7
2017-05-22T05:53:39.494Z,13.84
2017-05-22T05:54:54.851Z,13.89
2017-05-22T05:56:10.183Z,14.03
2017-05-22T05:57:25.777Z,14.09
2017-05-22T05:58:41.102Z,14.14
2017-05-22T05:59:55.161Z,14.1
2017-05-22T06:01:10.489Z,14.21
2017-05-22T06:02:26.398Z,14.22
2017-05-22T06:03:42.008Z,14.26
2017-05-22T06:04:56.063Z,14.25
2017-05-22T06:06:11.662Z,14.18
2017-05-22T06:07:27.299Z,14.31
2017-05-22T06:08:41.669Z,14.28
2017-05-22T06:09:54.446Z,14.36
2017-05-22T06:11:09.977Z,14.5
2017-05-22T06:12:24.227Z,14.52
2017-05-22T06:13:38.268Z,14.54
2017-05-22T06:14:52.329Z,14.69
2017-05-22T06:16:07.692Z,14.74
2017-05-22T06:17:23.303Z,14.78
2017-05-22T06:18:37.619Z,14.77
2017-05-22T06:19:52.968Z,14.87
2017-05-22T06:21:08.376Z,14.84
2017-05-22T06:22:23.926Z,14.78
2017-05-22T06:23:39.544Z,14.85
2017-05-22T06:24:52.442Z,14.88
2017-05-22T06:26:07.867Z,14.88
2017-05-22T06:27:23.433Z,14.87
2017-05-22T06:28:36.201Z,14.96
2017-05-22T06:29:51.543Z,14.91
2017-05-22T06:31:06.890Z,14.91
2017-05-22T06:32:22.263Z,14.93
2017-05-22T06:33:37.901Z,14.96
2017-05-22T06:34:53.486Z,14.99
2017-05-22T06:36:07.534Z,14.95
2017-05-22T06:37:21.686Z,14.96
2017-05-22T06:38:37.275Z,14.91
2017-05-22T06:39:52.608Z,14.96
2017-05-22T06:41:08.047Z,14.95
2017-05-22T06:42:23.018Z,15.09
2017-05-22T06:43:38.798Z,15.09
2017-05-22T06:44:53.039Z,15.13
2017-05-22T06:46:08.383Z,15.18
2017-05-22T06:47:23.890Z,15.25
2017-05-22T06:48:38.162Z,15.33
2017-05-22T06:49:52.235Z,15.29
2017-05-22T06:51:07.806Z,15.32
2017-05-22T06:52:22.861Z,15.38
2017-05-22T06:53:38.562Z,15.5
2017-05-22T06:54:50.061Z,15.45
2017-05-22T06:56:05.442Z,15.42
2017-05-22T06:57:20.926Z,15.35
2017-05-22T06:58:36.474Z,15.46
2017-05-22T06:59:46.325Z,15.45
2017-05-22T07:01:01.664Z,15.54
2017-05-22T07:02:14.483Z,15.51
2017-05-22T07:03:26.961Z,15.64
2017-05-22T07:04:39.833Z,15.57
2017-05-22T07:05:55.254Z,15.61
2017-05-22T07:07:10.638Z,15.66
2017-05-22T07:08:25.984Z,15.63
2017-05-22T07:09:41.553Z,15.78
2017-05-22T07:10:54.401Z,15.76
2017-05-22T07:12:09.763Z,15.78
2017-05-22T07:13:25.091Z,15.78
2017-05-22T07:14:40.864Z,15.8
2017-05-22T07:15:55.011Z,15.89
2017-05-22T07:17:08.991Z,15.88
2017-05-22T07:18:24.377Z,15.98
2017-05-22T07:19:39.937Z,15.96
2017-05-22T07:20:55.545Z,15.96
2017-05-22T07:22:09.642Z,15.94
2017-05-22T07:23:24.996Z,16.04
2017-05-22T07:24:40.586Z,16.17
2017-05-22T07:25:54.671Z,16.21
2017-05-22T07:27:09.122Z,16.28
2017-05-22T07:28:22.815Z,16.28
2017-05-22T07:29:35.572Z,16.31
2017-05-22T07:30:51.358Z,16.29
2017-05-22T07:32:06.692Z,16.27
2017-05-22T07:33:22.265Z,16.16
2017-05-22T07:34:36.351Z,16.2
2017-05-22T07:35:50.806Z,16.29
2017-05-22T07:37:06.136Z,16.38
2017-05-22T07:38:20.416Z,16.31
2017-05-22T07:39:34.343Z,16.31
2017-05-22T07:40:46.358Z,16.42
2017-05-22T07:41:59.129Z,16.36
2017-05-22T07:43:13.050Z,16.39
2017-05-22T07:44:27.109Z,16.56
2017-05-22T07:45:39.756Z,16.61
2017-05-22T07:46:53.924Z,16.53
2017-05-22T07:48:09.270Z,16.57
2017-05-22T07:49:24.611Z,16.59
2017-05-22T07:50:39.986Z,16.65
2017-05-22T07:51:55.556Z,16.69
2017-05-22T07:53:10.911Z,16.66
2017-05-22T07:54:26.248Z,16.69
2017-05-22T07:55:38.931Z,16.54
2017-05-22T07:56:54.473Z,16.61
2017-05-22T07:58:08.575Z,16.53
2017-05-22T07:59:23.902Z,16.44
2017-05-22T08:00:37.961Z,16.43
2017-05-22T08:01:53.550Z,16.39
2017-05-22T08:03:06.189Z,16.49
2017-05-22T08:04:21.577Z,16.39
2017-05-22T08:05:36.920Z,16.43
2017-05-22T08:06:52.497Z,16.57
2017-05-22T08:08:06.625Z,16.54
2017-05-22T08:09:22.038Z,16.62
2017-05-22T08:10:37.369Z,16.51
2017-05-22T08:11:52.920Z,16.54
2017-05-22T08:13:08.041Z,16.44
2017-05-22T08:14:23.475Z,16.51
2017-05-22T08:15:39.036Z,16.49
2017-05-22T08:16:54.589Z,16.57
2017-05-22T08:18:09.949Z,16.71
2017-05-22T08:19:25.317Z,16.82
2017-05-22T08:20:40.654Z,16.9
2017-05-22T08:21:56.305Z,16.98
2017-05-22T08:23:10.408Z,16.98
2017-05-22T08:24:25.761Z,17.06
2017-05-22T08:25:38.433Z,17.19
2017-05-22T08:26:53.806Z,17.31
2017-05-22T08:28:08.061Z,17.28
2017-05-22T08:29:23.521Z,17.39
2017-05-22T08:30:37.524Z,17.42
2017-05-22T08:31:53.072Z,17.57
2017-05-22T08:33:08.602Z,17.62
2017-05-22T08:34:24.040Z,17.83
2017-05-22T08:35:35.380Z,17.94
2017-05-22T08:36:50.789Z,18
2017-05-22T08:38:06.391Z,18.07
2017-05-22T08:39:19.046Z,18.32
2017-05-22T08:40:32.970Z,18.34
2017-05-22T08:41:48.344Z,18.62
2017-05-22T08:43:03.887Z,18.97
2017-05-22T08:44:17.920Z,19.48
2017-05-22T08:45:33.251Z,20.31
2017-05-22T08:46:48.614Z,21.18
2017-05-22T08:48:04.188Z,22.12
2017-05-22T08:49:19.542Z,22.89
2017-05-22T08:50:33.708Z,23.55
2017-05-22T08:51:49.085Z,24
2017-05-22T08:53:04.649Z,24.5
2017-05-22T08:54:20.040Z,24.85
2017-05-22T08:55:35.384Z,25.1
2017-05-22T08:56:50.724Z,25.49
2017-05-22T08:58:05.004Z,25.68
2017-05-22T08:59:20.399Z,26
2017-05-22T09:00:35.761Z,26.27
2017-05-22T09:01:49.832Z,26.25
2017-05-22T09:03:05.464Z,26.19
2017-05-22T09:04:21.143Z,26.19
2017-05-22T09:05:36.549Z,26.34
2017-05-22T09:06:51.941Z,26.48
2017-05-22T09:08:07.591Z,26.67
2017-05-22T09:09:21.806Z,26.88
2017-05-22T09:10:35.889Z,26.86
2017-05-22T09:11:51.245Z,26.71
2017-05-22T09:13:05.501Z,26.62
2017-05-22T09:14:20.872Z,26.48
2017-05-22T09:15:35.201Z,26.27
2017-05-22T09:16:49.522Z,26.24
2017-05-22T09:18:03.643Z,26.06
2017-05-22T09:19:19.328Z,25.97
2017-05-22T09:20:34.692Z,26
2017-05-22T09:21:48.863Z,26.3
2017-05-22T09:23:02.817Z,26.56
2017-05-22T09:24:18.781Z,26.93
2017-05-22T09:25:34.256Z,27.28
2017-05-22T09:26:48.331Z,27.7
2017-05-22T09:28:02.466Z,28.04
2017-05-22T09:29:18.685Z,28.24
2017-05-22T09:30:34.041Z,28.34
2017-05-22T09:31:49.459Z,28.34
2017-05-22T09:33:04.840Z,28.44
2017-05-22T09:34:17.869Z,28.54
2017-05-22T09:35:33.229Z,28.69
2017-05-22T09:36:48.646Z,28.94
2017-05-22T09:38:04.014Z,29.02
2017-05-22T09:39:19.594Z,29.07
2017-05-22T09:40:35.018Z,28.81
2017-05-22T09:41:49.592Z,28.36
2017-05-22T09:43:05.006Z,27.83
2017-05-22T09:44:19.283Z,27.01
2017-05-22T09:45:34.646Z,26.93
2017-05-22T09:46:48.589Z,26.55
2017-05-22T09:48:04.173Z,26.02
2017-05-22T09:49:18.609Z,25.27
2017-05-22T09:50:32.718Z,24.69
2017-05-22T09:51:48.069Z,24.35
2017-05-22T09:53:02.150Z,24.81
2017-05-22T09:54:17.518Z,25.32
2017-05-22T09:55:32.082Z,25.78
2017-05-22T09:56:47.462Z,26.15
2017-05-22T09:58:02.849Z,26.61
2017-05-22T09:59:16.940Z,26.8
2017-05-22T10:00:30.220Z,27.08
2017-05-22T10:01:45.599Z,27.31
2017-05-22T10:03:00.659Z,27.58
2017-05-22T10:04:16.066Z,27.53
2017-05-22T10:05:31.622Z,27.14
2017-05-22T10:06:45.970Z,26.61
2017-05-22T10:08:01.346Z,26.34
2017-05-22T10:09:16.760Z,26.34
2017-05-22T10:10:32.325Z,26.29
2017-05-22T10:11:46.387Z,26.33
2017-05-22T10:13:00.484Z,26.19
2017-05-22T10:14:14.587Z,26.12
2017-05-22T10:15:28.778Z,25.93
2017-05-22T10:16:44.177Z,25.64
2017-05-22T10:17:59.552Z,25.27
2017-05-22T10:19:14.553Z,24.99
2017-05-22T10:20:28.813Z,24.62
2017-05-22T10:21:42.787Z,24.43
2017-05-22T10:22:58.184Z,24.55
2017-05-22T10:24:13.673Z,24.29
2017-05-22T10:25:27.746Z,24.17
2017-05-22T10:26:42.010Z,24.1
2017-05-22T10:27:54.785Z,24.02
2017-05-22T10:29:10.221Z,24.27
2017-05-22T10:30:25.588Z,24.48
2017-05-22T10:31:41.327Z,24.73
2017-05-22T10:32:53.970Z,24.99
2017-05-22T10:34:09.328Z,25.21
2017-05-22T10:35:23.734Z,25.52
2017-05-22T10:36:39.299Z,25.78
2017-05-22T10:37:53.629Z,26.06
2017-05-22T10:39:08.182Z,26.33
2017-05-22T10:40:23.561Z,26.41
2017-05-22T10:41:39.120Z,26.14
2017-05-22T10:42:54.486Z,25.82
2017-05-22T10:44:08.617Z,25.5
2017-05-22T10:45:24.021Z,25.5
2017-05-22T10:46:39.946Z,25.49
2017-05-22T10:47:52.997Z,25.64
2017-05-22T10:49:08.399Z,25.88
2017-05-22T10:50:23.778Z,26.25
2017-05-22T10:51:39.620Z,26.41
2017-05-22T10:52:55.104Z,26.52
2017-05-22T10:54:10.494Z,26.58
2017-05-22T10:55:24.594Z,26.7
2017-05-22T10:56:39.914Z,26.78
2017-05-22T10:57:53.065Z,26.9
2017-05-22T10:59:08.733Z,27.01
2017-05-22T11:00:24.143Z,27.03
2017-05-22T11:01:39.506Z,26.95
2017-05-22T11:02:53.667Z,26.98
2017-05-22T11:04:09.121Z,27.03
2017-05-22T11:05:23.206Z,27.08
2017-05-22T11:06:37.319Z,27.03
2017-05-22T11:07:52.893Z,26.83
2017-05-22T11:09:05.696Z,26.55
2017-05-22T11:10:21.066Z,26.33
2017-05-22T11:11:36.491Z,26.24
2017-05-22T11:12:49.749Z,26.14
2017-05-22T11:14:05.161Z,25.97
2017-05-22T11:15:19.554Z,25.82
2017-05-22T11:16:34.960Z,25.69
2017-05-22T11:17:50.573Z,25.54
2017-05-22T11:19:06.032Z,25.4
2017-05-22T11:20:21.463Z,25.56
2017-05-22T11:21:35.882Z,25.49
2017-05-22T11:22:51.573Z,25.65
2017-05-22T11:24:05.749Z,25.82
2017-05-22T11:25:21.110Z,25.99
2017-05-22T11:26:31.199Z,25.99
2017-05-22T11:27:47.011Z,26.19
2017-05-22T11:29:02.427Z,26.36
2017-05-22T11:30:16.456Z,26.36
2017-05-22T11:31:29.548Z,26.59
2017-05-22T11:32:44.947Z,26.83
2017-05-22T11:34:00.536Z,26.74
2017-05-22T11:35:14.522Z,26.86
2017-05-22T11:36:29.896Z,26.96
2017-05-22T11:37:45.296Z,27.11
2017-05-22T11:38:59.213Z,27.14
2017-05-22T11:40:11.873Z,27.3
2017-05-22T11:41:27.367Z,27.39
2017-05-22T11:42:41.446Z,27.31
2017-05-22T11:43:57.058Z,27.2
2017-05-22T11:45:12.433Z,27.11
2017-05-22T11:46:27.834Z,27.14
2017-05-22T11:47:41.917Z,27.1
2017-05-22T11:48:56.222Z,27.12
2017-05-22T11:50:10.321Z,27.03
2017-05-22T11:51:24.406Z,27.03
2017-05-22T11:52:39.891Z,27.03
2017-05-22T11:53:54.401Z,26.92
2017-05-22T11:55:08.923Z,26.92
2017-05-22T11:56:24.308Z,26.93
2017-05-22T11:57:37.120Z,26.96
2017-05-22T11:58:52.477Z,26.95
2017-05-22T12:00:08.259Z,27.03
2017-05-22T12:01:23.643Z,26.96
2017-05-22T12:02:37.772Z,26.78
2017-05-22T12:03:53.359Z,26.77
2017-05-22T12:05:07.718Z,26.53
2017-05-22T12:06:21.881Z,26.37
2017-05-22T12:07:37.256Z,26.25
2017-05-22T12:08:51.754Z,26.15
2017-05-22T12:10:06.325Z,25.84
2017-05-22T12:11:21.704Z,25.69
2017-05-22T12:12:37.079Z,25.64
2017-05-22T12:13:52.451Z,25.54
2017-05-22T12:15:06.734Z,25.5
2017-05-22T12:16:22.167Z,25.46
2017-05-22T12:17:36.247Z,25.52
2017-05-22T12:18:50.318Z,25.5
2017-05-22T12:20:05.992Z,25.47
2017-05-22T12:21:21.401Z,25.27
2017-05-22T12:22:35.509Z,25.19
2017-05-22T12:23:50.007Z,25.06
2017-05-22T12:25:04.296Z,24.9
2017-05-22T12:26:19.651Z,25.02
2017-05-22T12:27:32.478Z,25
2017-05-22T12:28:47.942Z,24.97
2017-05-22T12:30:03.551Z,24.62
2017-05-22T12:31:17.909Z,24.57
2017-05-22T12:32:32.063Z,24.4
2017-05-22T12:33:46.159Z,24.32
2017-05-22T12:35:00.240Z,24.25
2017-05-22T12:36:15.598Z,24.15
2017-05-22T12:37:31.049Z,24.1
2017-05-22T12:38:45.004Z,24.06
2017-05-22T12:40:00.383Z,23.95
2017-05-22T12:41:15.760Z,23.97
2017-05-22T12:42:31.121Z,23.98
2017-05-22T12:43:46.526Z,23.94
2017-05-22T12:45:02.140Z,23.97
2017-05-22T12:46:17.545Z,23.94
2017-05-22T12:47:33.000Z,23.88
2017-05-22T12:48:47.089Z,24.06
2017-05-22T12:50:02.465Z,24.01
2017-05-22T12:51:17.838Z,23.85
2017-05-22T12:52:33.433Z,23.79
2017-05-22T12:53:47.417Z,23.76
2017-05-22T12:55:01.526Z,23.72
2017-05-22T12:56:18.648Z,23.73
2017-05-22T12:57:32.818Z,23.64
2017-05-22T12:58:48.206Z,23.43
2017-05-22T13:00:03.243Z,23.43
2017-05-22T13:01:18.915Z,23.36
2017-05-22T13:02:34.313Z,23.31
2017-05-22T13:03:48.454Z,23.38
2017-05-22T13:05:03.487Z,23.36
2017-05-22T13:06:19.073Z,23.32
2017-05-22T13:07:33.172Z,23.36
2017-05-22T13:08:47.637Z,23.35
2017-05-22T13:10:01.753Z,23.32
2017-05-22T13:11:17.365Z,23.33
2017-05-22T13:12:32.812Z,23.31
2017-05-22T13:13:48.194Z,23.16
2017-05-22T13:15:02.547Z,23.18
2017-05-22T13:16:18.115Z,23.01
2017-05-22T13:17:33.496Z,23.05
2017-05-22T13:18:47.569Z,22.96
2017-05-22T13:20:02.951Z,22.76
2017-05-22T13:21:18.592Z,22.64
2017-05-22T13:22:34.093Z,22.63
2017-05-22T13:23:49.700Z,22.63
2017-05-22T13:25:35.834Z,22.67
2017-05-22T13:26:51.491Z,22.7
2017-05-22T13:28:06.877Z,22.78
2017-05-22T13:29:22.253Z,22.78
2017-05-22T13:30:34.930Z,22.8
2017-05-22T13:31:48.834Z,22.87
2017-05-22T13:33:01.508Z,22.89
2017-05-22T13:34:15.517Z,22.85
2017-05-22T13:35:30.888Z,22.87
2017-05-22T13:36:46.557Z,22.89
2017-05-22T13:38:01.940Z,22.89
2017-05-22T13:39:14.969Z,22.96
2017-05-22T13:40:28.915Z,22.87
2017-05-22T13:41:44.301Z,22.8
2017-05-22T13:42:57.565Z,22.76
2017-05-22T13:44:13.196Z,22.78
2017-05-22T13:45:27.272Z,22.82
2017-05-22T13:46:42.686Z,22.87
2017-05-22T13:47:58.278Z,22.82
2017-05-22T13:49:13.626Z,22.98
2017-05-22T13:50:28.991Z,22.98
2017-05-22T13:51:43.086Z,23.05
2017-05-22T13:52:58.635Z,23.05
2017-05-22T13:54:13.993Z,22.95
2017-05-22T13:55:29.366Z,23.01
2017-05-22T13:56:43.469Z,23.05
2017-05-22T13:57:59.135Z,22.96
2017-05-22T13:59:10.895Z,22.98
2017-05-22T14:00:26.294Z,22.89
2017-05-22T14:01:41.691Z,23.02
2017-05-22T14:02:56.193Z,22.85
2017-05-22T14:04:10.339Z,22.89
2017-05-22T14:05:24.519Z,22.8
2017-05-22T14:06:37.307Z,22.8
2017-05-22T14:07:52.916Z,22.63
2017-05-22T14:09:05.750Z,22.55
2017-05-22T14:10:18.446Z,22.52
2017-05-22T14:11:31.122Z,22.43
2017-05-22T14:12:46.503Z,22.43
2017-05-22T14:14:02.114Z,22.38
2017-05-22T14:15:17.535Z,22.3
2017-05-22T14:16:32.911Z,22.09
2017-05-22T14:17:48.346Z,22.08
2017-05-22T14:19:02.729Z,21.94
2017-05-22T14:20:17.123Z,21.72
2017-05-22T14:21:31.196Z,21.75
2017-05-22T14:22:46.567Z,21.73
2017-05-22T14:24:02.133Z,21.79
2017-05-22T14:25:17.532Z,21.84
2017-05-22T14:26:31.628Z,21.91
2017-05-22T14:27:44.284Z,21.76
2017-05-22T14:28:56.551Z,21.75
2017-05-22T14:30:12.040Z,21.73
2017-05-22T14:31:27.413Z,21.68
2017-05-22T14:32:42.875Z,21.75
2017-05-22T14:33:57.158Z,21.75
2017-05-22T14:35:12.547Z,21.71
2017-05-22T14:36:27.916Z,21.57
2017-05-22T14:37:41.988Z,21.65
2017-05-22T14:38:57.630Z,21.75
2017-05-22T14:40:13.037Z,21.76
2017-05-22T14:41:28.498Z,21.75
2017-05-22T14:42:42.629Z,21.87
2017-05-22T14:43:58.594Z,21.94
2017-05-22T14:45:12.704Z,21.93
2017-05-22T14:46:28.067Z,21.97
2017-05-22T14:47:43.466Z,21.91
2017-05-22T14:48:57.569Z,21.96
2017-05-22T14:50:11.877Z,22.06
2017-05-22T14:51:24.702Z,22.08
2017-05-22T14:52:40.111Z,22.2
2017-05-22T14:53:54.417Z,22.12
2017-05-22T14:55:40.866Z,22.18
2017-05-22T14:56:56.236Z,22.2
2017-05-22T14:58:11.591Z,22.31
2017-05-22T14:59:27.474Z,22.3
2017-05-22T15:00:41.663Z,22.4
2017-05-22T15:01:57.036Z,22.34
2017-05-22T15:03:12.594Z,22.43
2017-05-22T15:04:28.447Z,22.42
2017-05-22T15:05:43.798Z,22.46
2017-05-22T15:06:59.184Z,22.33
2017-05-22T15:08:14.792Z,22.38
2017-05-22T15:09:30.357Z,22.4
2017-05-22T15:10:44.467Z,22.39
2017-05-22T15:12:00.245Z,22.4
2017-05-22T15:13:15.643Z,22.24
2017-05-22T15:14:31.289Z,22.33
2017-05-22T15:16:14.816Z,22.2
2017-05-22T15:17:30.167Z,22.2
2017-05-22T15:18:45.571Z,22.05
2017-05-22T15:20:01.269Z,21.96
2017-05-22T15:21:16.661Z,21.9
2017-05-22T15:22:30.828Z,21.84
2017-05-22T15:23:46.191Z,21.84
2017-05-22T15:25:02.070Z,21.72
2017-05-22T15:26:17.444Z,21.83
2017-05-22T15:27:32.959Z,21.78
2017-05-22T15:28:48.328Z,21.83
2017-05-22T15:30:02.663Z,21.81
2017-05-22T15:31:18.069Z,21.84
2017-05-22T15:32:32.146Z,21.9
2017-05-22T15:33:47.510Z,21.87
2017-05-22T15:35:02.288Z,21.86
2017-05-22T15:36:17.925Z,21.97
2017-05-22T15:37:33.330Z,21.96
2017-05-22T15:38:47.446Z,21.91
2017-05-22T15:40:03.093Z,21.86
2017-05-22T15:41:18.508Z,21.75
2017-05-22T15:42:33.878Z,21.76
2017-05-22T15:43:47.837Z,21.76
2017-05-22T15:45:03.486Z,21.84
2017-05-22T15:46:17.885Z,21.84
2017-05-22T15:47:33.294Z,21.69
2017-05-22T15:48:48.723Z,21.72
2017-05-22T15:50:04.294Z,21.9
2017-05-22T15:51:19.715Z,21.94
2017-05-22T15:52:35.083Z,22.06
2017-05-22T15:53:50.463Z,22.08
2017-05-22T15:55:06.082Z,22.16
2017-05-22T15:56:21.430Z,22.31
2017-05-22T15:57:36.812Z,22.4
2017-05-22T15:58:52.222Z,22.31
2017-05-22T16:00:06.402Z,22.45
2017-05-22T16:01:22.004Z,22.35
2017-05-22T16:02:37.515Z,22.33
2017-05-22T16:03:52.884Z,22.34
2017-05-22T16:05:08.133Z,22.31
2017-05-22T16:06:22.298Z,22.2
2017-05-22T16:07:37.699Z,22.16
2017-05-22T16:08:53.095Z,22.18